sensor_id;sensor_type;location;lat;lon;timestamp;P1;durP1;ratioP1;P2;durP2;ratioP2
30048;SDS011;16879;50.852;15.602;2023-11-21T00:01:09;7.90;;;4.45;;
30048;SDS011;16879;50.852;15.602;2023-11-21T00:03:35;6.63;;;4.38;;
30048;SDS011;16879;50.852;15.602;2023-11-21T00:06:01;6.07;;;3.47;;
30048;SDS011;16879;50.852;15.602;2023-11-21T00:08:28;8.68;;;4.22;;
30048;SDS011;16879;50.852;15.602;2023-11-21T00:10:53;6.40;;;4.43;;
30048;SDS011;16879;50.852;15.602;2023-11-21T00:13:20;11.27;;;4.82;;
30048;SDS011;16879;50.852;15.602;2023-11-21T00:15:46;10.38;;;4.88;;
30048;SDS011;16879;50.852;15.602;2023-11-21T00:18:14;12.32;;;5.05;;
30048;SDS011;16879;50.852;15.602;2023-11-21T00:20:40;9.55;;;4.70;;
30048;SDS011;16879;50.852;15.602;2023-11-21T00:23:06;6.18;;;4.18;;
30048;SDS011;16879;50.852;15.602;2023-11-21T00:25:32;10.70;;;5.57;;
30048;SDS011;16879;50.852;15.602;2023-11-21T00:27:58;10.63;;;6.53;;
30048;SDS011;16879;50.852;15.602;2023-11-21T00:30:26;9.30;;;5.90;;
30048;SDS011;16879;50.852;15.602;2023-11-21T00:32:54;11.45;;;6.55;;
30048;SDS011;16879;50.852;15.602;2023-11-21T00:35:20;11.88;;;6.30;;
30048;SDS011;16879;50.852;15.602;2023-11-21T00:37:46;13.93;;;8.27;;
30048;SDS011;16879;50.852;15.602;2023-11-21T00:40:12;10.70;;;6.68;;
30048;SDS011;16879;50.852;15.602;2023-11-21T00:42:40;12.98;;;7.07;;
30048;SDS011;16879;50.852;15.602;2023-11-21T00:45:06;11.15;;;7.28;;
30048;SDS011;16879;50.852;15.602;2023-11-21T00:47:33;17.25;;;7.85;;
30048;SDS011;16879;50.852;15.602;2023-11-21T00:49:59;8.63;;;5.60;;
30048;SDS011;16879;50.852;15.602;2023-11-21T00:52:25;8.35;;;5.55;;
30048;SDS011;16879;50.852;15.602;2023-11-21T00:54:51;7.35;;;6.55;;
30048;SDS011;16879;50.852;15.602;2023-11-21T00:57:17;20.98;;;6.20;;
30048;SDS011;16879;50.852;15.602;2023-11-21T00:59:43;8.80;;;6.50;;
30048;SDS011;16879;50.852;15.602;2023-11-21T01:02:10;8.27;;;4.97;;
30048;SDS011;16879;50.852;15.602;2023-11-21T01:04:36;9.68;;;5.00;;
30048;SDS011;16879;50.852;15.602;2023-11-21T01:07:02;6.88;;;4.22;;
30048;SDS011;16879;50.852;15.602;2023-11-21T01:09:30;10.88;;;5.38;;
30048;SDS011;16879;50.852;15.602;2023-11-21T01:11:56;10.07;;;5.20;;
30048;SDS011;16879;50.852;15.602;2023-11-21T01:14:23;7.53;;;5.03;;
30048;SDS011;16879;50.852;15.602;2023-11-21T01:16:52;6.63;;;4.82;;
30048;SDS011;16879;50.852;15.602;2023-11-21T01:19:18;13.43;;;7.35;;
30048;SDS011;16879;50.852;15.602;2023-11-21T01:21:43;12.80;;;7.10;;
30048;SDS011;16879;50.852;15.602;2023-11-21T01:24:09;16.02;;;9.38;;
30048;SDS011;16879;50.852;15.602;2023-11-21T01:26:35;13.43;;;6.78;;
30048;SDS011;16879;50.852;15.602;2023-11-21T01:29:01;7.35;;;5.57;;
30048;SDS011;16879;50.852;15.602;2023-11-21T01:31:27;9.38;;;4.38;;
30048;SDS011;16879;50.852;15.602;2023-11-21T01:33:55;6.68;;;4.47;;
30048;SDS011;16879;50.852;15.602;2023-11-21T01:36:21;6.55;;;4.35;;
30048;SDS011;16879;50.852;15.602;2023-11-21T01:38:47;8.45;;;4.70;;
30048;SDS011;16879;50.852;15.602;2023-11-21T01:41:13;7.97;;;3.80;;
30048;SDS011;16879;50.852;15.602;2023-11-21T01:43:40;4.97;;;3.58;;
30048;SDS011;16879;50.852;15.602;2023-11-21T01:46:06;8.23;;;4.45;;
30048;SDS011;16879;50.852;15.602;2023-11-21T01:48:34;7.38;;;4.53;;
30048;SDS011;16879;50.852;15.602;2023-11-21T01:51:00;4.57;;;4.15;;
30048;SDS011;16879;50.852;15.602;2023-11-21T01:53:26;10.82;;;4.88;;
30048;SDS011;16879;50.852;15.602;2023-11-21T01:55:53;17.45;;;4.93;;
30048;SDS011;16879;50.852;15.602;2023-11-21T01:58:21;10.68;;;4.93;;
30048;SDS011;16879;50.852;15.602;2023-11-21T02:00:47;5.72;;;4.57;;
30048;SDS011;16879;50.852;15.602;2023-11-21T02:03:16;9.88;;;4.57;;
30048;SDS011;16879;50.852;15.602;2023-11-21T02:05:42;6.93;;;5.68;;
30048;SDS011;16879;50.852;15.602;2023-11-21T02:08:08;11.40;;;5.90;;
30048;SDS011;16879;50.852;15.602;2023-11-21T02:10:34;12.32;;;5.40;;
30048;SDS011;16879;50.852;15.602;2023-11-21T02:13:02;7.88;;;4.72;;
30048;SDS011;16879;50.852;15.602;2023-11-21T02:15:28;5.97;;;5.38;;
30048;SDS011;16879;50.852;15.602;2023-11-21T02:17:55;7.35;;;4.85;;
30048;SDS011;16879;50.852;15.602;2023-11-21T02:20:23;12.90;;;8.30;;
30048;SDS011;16879;50.852;15.602;2023-11-21T02:22:55;14.88;;;9.93;;
30048;SDS011;16879;50.852;15.602;2023-11-21T02:25:25;9.35;;;7.47;;
30048;SDS011;16879;50.852;15.602;2023-11-21T02:27:53;13.45;;;7.72;;
30048;SDS011;16879;50.852;15.602;2023-11-21T02:30:20;9.48;;;7.10;;
30048;SDS011;16879;50.852;15.602;2023-11-21T02:32:47;9.73;;;7.25;;
30048;SDS011;16879;50.852;15.602;2023-11-21T02:35:13;10.55;;;7.20;;
30048;SDS011;16879;50.852;15.602;2023-11-21T02:37:41;8.93;;;6.80;;
30048;SDS011;16879;50.852;15.602;2023-11-21T02:40:10;7.45;;;5.97;;
30048;SDS011;16879;50.852;15.602;2023-11-21T02:42:43;10.20;;;7.45;;
30048;SDS011;16879;50.852;15.602;2023-11-21T02:45:09;9.40;;;7.22;;
30048;SDS011;16879;50.852;15.602;2023-11-21T02:47:38;5.82;;;5.15;;
30048;SDS011;16879;50.852;15.602;2023-11-21T02:50:07;7.20;;;5.55;;
30048;SDS011;16879;50.852;15.602;2023-11-21T02:52:34;6.97;;;5.70;;
30048;SDS011;16879;50.852;15.602;2023-11-21T02:55:00;8.70;;;6.13;;
30048;SDS011;16879;50.852;15.602;2023-11-21T02:57:26;7.75;;;6.05;;
30048;SDS011;16879;50.852;15.602;2023-11-21T02:59:53;7.55;;;6.05;;
30048;SDS011;16879;50.852;15.602;2023-11-21T03:02:19;6.97;;;5.78;;
30048;SDS011;16879;50.852;15.602;2023-11-21T03:04:45;5.55;;;5.05;;
30048;SDS011;16879;50.852;15.602;2023-11-21T03:07:14;6.47;;;5.75;;
30048;SDS011;16879;50.852;15.602;2023-11-21T03:09:40;5.35;;;4.53;;
30048;SDS011;16879;50.852;15.602;2023-11-21T03:12:06;5.90;;;4.28;;
30048;SDS011;16879;50.852;15.602;2023-11-21T03:14:32;4.60;;;4.15;;
30048;SDS011;16879;50.852;15.602;2023-11-21T03:16:58;6.38;;;4.90;;
30048;SDS011;16879;50.852;15.602;2023-11-21T03:19:24;8.07;;;5.47;;
30048;SDS011;16879;50.852;15.602;2023-11-21T03:21:49;6.80;;;5.65;;
30048;SDS011;16879;50.852;15.602;2023-11-21T03:24:18;7.90;;;5.25;;
30048;SDS011;16879;50.852;15.602;2023-11-21T03:26:48;7.18;;;4.97;;
30048;SDS011;16879;50.852;15.602;2023-11-21T03:29:14;11.73;;;6.65;;
30048;SDS011;16879;50.852;15.602;2023-11-21T03:31:40;6.82;;;5.65;;
30048;SDS011;16879;50.852;15.602;2023-11-21T03:34:06;8.13;;;6.65;;
30048;SDS011;16879;50.852;15.602;2023-11-21T03:36:34;7.07;;;6.22;;
30048;SDS011;16879;50.852;15.602;2023-11-21T03:39:01;7.70;;;6.63;;
30048;SDS011;16879;50.852;15.602;2023-11-21T03:41:27;6.35;;;5.75;;
30048;SDS011;16879;50.852;15.602;2023-11-21T03:43:53;7.80;;;6.10;;
30048;SDS011;16879;50.852;15.602;2023-11-21T03:46:19;7.60;;;5.75;;
30048;SDS011;16879;50.852;15.602;2023-11-21T03:48:45;6.30;;;5.53;;
30048;SDS011;16879;50.852;15.602;2023-11-21T03:51:11;5.20;;;4.70;;
30048;SDS011;16879;50.852;15.602;2023-11-21T03:53:37;7.95;;;5.55;;
30048;SDS011;16879;50.852;15.602;2023-11-21T03:56:03;9.98;;;6.35;;
30048;SDS011;16879;50.852;15.602;2023-11-21T03:58:29;5.22;;;4.72;;
30048;SDS011;16879;50.852;15.602;2023-11-21T04:00:55;6.40;;;4.45;;
30048;SDS011;16879;50.852;15.602;2023-11-21T04:03:21;5.32;;;3.60;;
30048;SDS011;16879;50.852;15.602;2023-11-21T04:05:47;6.25;;;3.83;;
30048;SDS011;16879;50.852;15.602;2023-11-21T04:08:13;6.57;;;5.80;;
30048;SDS011;16879;50.852;15.602;2023-11-21T04:10:39;8.27;;;5.63;;
30048;SDS011;16879;50.852;15.602;2023-11-21T04:13:07;9.50;;;6.72;;
30048;SDS011;16879;50.852;15.602;2023-11-21T04:15:33;8.80;;;5.95;;
30048;SDS011;16879;50.852;15.602;2023-11-21T04:17:59;5.80;;;5.32;;
30048;SDS011;16879;50.852;15.602;2023-11-21T04:20:25;7.70;;;6.78;;
30048;SDS011;16879;50.852;15.602;2023-11-21T04:22:52;7.70;;;6.82;;
30048;SDS011;16879;50.852;15.602;2023-11-21T04:25:19;11.85;;;8.85;;
30048;SDS011;16879;50.852;15.602;2023-11-21T04:27:45;9.30;;;6.15;;
30048;SDS011;16879;50.852;15.602;2023-11-21T04:30:12;9.63;;;5.25;;
30048;SDS011;16879;50.852;15.602;2023-11-21T04:32:38;11.20;;;5.55;;
30048;SDS011;16879;50.852;15.602;2023-11-21T04:35:05;5.50;;;4.57;;
30048;SDS011;16879;50.852;15.602;2023-11-21T04:37:34;7.85;;;4.88;;
30048;SDS011;16879;50.852;15.602;2023-11-21T04:40:01;6.57;;;5.03;;
30048;SDS011;16879;50.852;15.602;2023-11-21T04:42:33;4.93;;;4.40;;
30048;SDS011;16879;50.852;15.602;2023-11-21T04:45:03;6.95;;;5.60;;
30048;SDS011;16879;50.852;15.602;2023-11-21T04:47:34;9.38;;;6.38;;
30048;SDS011;16879;50.852;15.602;2023-11-21T04:50:03;10.50;;;6.68;;
30048;SDS011;16879;50.852;15.602;2023-11-21T04:52:30;7.55;;;5.35;;
30048;SDS011;16879;50.852;15.602;2023-11-21T04:54:59;6.53;;;5.80;;
30048;SDS011;16879;50.852;15.602;2023-11-21T04:57:29;5.95;;;5.30;;
30048;SDS011;16879;50.852;15.602;2023-11-21T04:59:58;6.07;;;4.68;;
30048;SDS011;16879;50.852;15.602;2023-11-21T05:02:26;4.72;;;4.18;;
30048;SDS011;16879;50.852;15.602;2023-11-21T05:04:52;12.98;;;4.30;;
30048;SDS011;16879;50.852;15.602;2023-11-21T05:07:18;8.32;;;5.13;;
30048;SDS011;16879;50.852;15.602;2023-11-21T05:09:44;10.98;;;6.53;;
30048;SDS011;16879;50.852;15.602;2023-11-21T05:12:11;10.57;;;6.50;;
30048;SDS011;16879;50.852;15.602;2023-11-21T05:14:38;5.75;;;4.88;;
30048;SDS011;16879;50.852;15.602;2023-11-21T05:17:04;7.18;;;6.05;;
30048;SDS011;16879;50.852;15.602;2023-11-21T05:19:30;10.18;;;6.70;;
30048;SDS011;16879;50.852;15.602;2023-11-21T05:21:57;7.18;;;5.68;;
30048;SDS011;16879;50.852;15.602;2023-11-21T05:24:25;11.63;;;7.03;;
30048;SDS011;16879;50.852;15.602;2023-11-21T05:26:51;15.75;;;8.18;;
30048;SDS011;16879;50.852;15.602;2023-11-21T05:29:19;13.32;;;7.70;;
30048;SDS011;16879;50.852;15.602;2023-11-21T05:31:45;8.90;;;6.50;;
30048;SDS011;16879;50.852;15.602;2023-11-21T05:34:11;14.80;;;9.23;;
30048;SDS011;16879;50.852;15.602;2023-11-21T05:36:37;15.20;;;10.10;;
30048;SDS011;16879;50.852;15.602;2023-11-21T05:39:05;14.70;;;8.60;;
30048;SDS011;16879;50.852;15.602;2023-11-21T05:41:31;17.50;;;8.65;;
30048;SDS011;16879;50.852;15.602;2023-11-21T05:43:57;19.35;;;11.55;;
30048;SDS011;16879;50.852;15.602;2023-11-21T05:46:23;20.95;;;12.95;;
30048;SDS011;16879;50.852;15.602;2023-11-21T05:48:49;17.48;;;10.90;;
30048;SDS011;16879;50.852;15.602;2023-11-21T05:51:15;13.85;;;9.60;;
30048;SDS011;16879;50.852;15.602;2023-11-21T05:53:42;14.35;;;9.50;;
30048;SDS011;16879;50.852;15.602;2023-11-21T05:56:08;16.60;;;10.45;;
30048;SDS011;16879;50.852;15.602;2023-11-21T05:58:34;14.65;;;8.73;;
30048;SDS011;16879;50.852;15.602;2023-11-21T06:01:00;20.30;;;12.13;;
30048;SDS011;16879;50.852;15.602;2023-11-21T06:03:26;21.13;;;11.90;;
30048;SDS011;16879;50.852;15.602;2023-11-21T06:05:51;18.40;;;9.65;;
30048;SDS011;16879;50.852;15.602;2023-11-21T06:08:17;23.42;;;13.68;;
30048;SDS011;16879;50.852;15.602;2023-11-21T06:10:44;19.23;;;11.45;;
30048;SDS011;16879;50.852;15.602;2023-11-21T06:13:10;20.42;;;13.88;;
30048;SDS011;16879;50.852;15.602;2023-11-21T06:15:36;21.98;;;13.57;;
30048;SDS011;16879;50.852;15.602;2023-11-21T06:18:02;21.23;;;11.73;;
30048;SDS011;16879;50.852;15.602;2023-11-21T06:20:28;27.05;;;12.82;;
30048;SDS011;16879;50.852;15.602;2023-11-21T06:22:53;19.23;;;13.18;;
30048;SDS011;16879;50.852;15.602;2023-11-21T06:25:19;23.50;;;14.65;;
30048;SDS011;16879;50.852;15.602;2023-11-21T06:27:46;22.88;;;12.98;;
30048;SDS011;16879;50.852;15.602;2023-11-21T06:30:13;22.63;;;15.10;;
30048;SDS011;16879;50.852;15.602;2023-11-21T06:32:40;19.83;;;12.02;;
30048;SDS011;16879;50.852;15.602;2023-11-21T06:35:07;22.95;;;12.18;;
30048;SDS011;16879;50.852;15.602;2023-11-21T06:37:36;26.75;;;15.43;;
30048;SDS011;16879;50.852;15.602;2023-11-21T06:40:02;20.67;;;11.88;;
30048;SDS011;16879;50.852;15.602;2023-11-21T06:42:31;21.63;;;12.95;;
30048;SDS011;16879;50.852;15.602;2023-11-21T06:44:58;22.88;;;14.02;;
30048;SDS011;16879;50.852;15.602;2023-11-21T06:47:28;20.45;;;11.20;;
30048;SDS011;16879;50.852;15.602;2023-11-21T06:49:55;21.45;;;11.32;;
30048;SDS011;16879;50.852;15.602;2023-11-21T06:52:22;22.98;;;10.23;;
30048;SDS011;16879;50.852;15.602;2023-11-21T06:54:49;45.20;;;18.60;;
30048;SDS011;16879;50.852;15.602;2023-11-21T06:57:14;64.82;;;26.63;;
30048;SDS011;16879;50.852;15.602;2023-11-21T06:59:41;76.45;;;31.90;;
30048;SDS011;16879;50.852;15.602;2023-11-21T07:02:07;59.35;;;27.92;;
30048;SDS011;16879;50.852;15.602;2023-11-21T07:04:34;40.40;;;19.70;;
30048;SDS011;16879;50.852;15.602;2023-11-21T07:07:01;42.65;;;18.58;;
30048;SDS011;16879;50.852;15.602;2023-11-21T07:09:27;33.40;;;18.08;;
30048;SDS011;16879;50.852;15.602;2023-11-21T07:11:53;38.63;;;17.77;;
30048;SDS011;16879;50.852;15.602;2023-11-21T07:14:19;34.58;;;15.23;;
30048;SDS011;16879;50.852;15.602;2023-11-21T07:16:46;23.40;;;13.43;;
30048;SDS011;16879;50.852;15.602;2023-11-21T07:19:12;19.65;;;10.07;;
30048;SDS011;16879;50.852;15.602;2023-11-21T07:21:39;18.13;;;10.18;;
30048;SDS011;16879;50.852;15.602;2023-11-21T07:24:06;18.00;;;9.70;;
30048;SDS011;16879;50.852;15.602;2023-11-21T07:26:33;18.50;;;10.88;;
30048;SDS011;16879;50.852;15.602;2023-11-21T07:28:59;22.65;;;11.57;;
30048;SDS011;16879;50.852;15.602;2023-11-21T07:31:26;20.55;;;11.90;;
30048;SDS011;16879;50.852;15.602;2023-11-21T07:33:52;19.88;;;10.30;;
30048;SDS011;16879;50.852;15.602;2023-11-21T07:36:18;14.55;;;9.10;;
30048;SDS011;16879;50.852;15.602;2023-11-21T07:38:46;15.50;;;9.88;;
30048;SDS011;16879;50.852;15.602;2023-11-21T07:41:13;14.50;;;9.43;;
30048;SDS011;16879;50.852;15.602;2023-11-21T07:43:42;20.80;;;12.40;;
30048;SDS011;16879;50.852;15.602;2023-11-21T07:46:09;26.83;;;16.98;;
30048;SDS011;16879;50.852;15.602;2023-11-21T07:48:38;25.70;;;18.40;;
30048;SDS011;16879;50.852;15.602;2023-11-21T07:51:04;31.73;;;22.13;;
30048;SDS011;16879;50.852;15.602;2023-11-21T07:53:32;40.92;;;23.13;;
30048;SDS011;16879;50.852;15.602;2023-11-21T07:56:07;47.33;;;28.67;;
30048;SDS011;16879;50.852;15.602;2023-11-21T07:58:34;41.33;;;24.67;;
30048;SDS011;16879;50.852;15.602;2023-11-21T08:01:01;35.00;;;23.23;;
30048;SDS011;16879;50.852;15.602;2023-11-21T08:03:27;27.52;;;17.67;;
30048;SDS011;16879;50.852;15.602;2023-11-21T08:05:55;26.17;;;16.48;;
30048;SDS011;16879;50.852;15.602;2023-11-21T08:08:21;25.90;;;16.58;;
30048;SDS011;16879;50.852;15.602;2023-11-21T08:10:49;27.75;;;16.90;;
30048;SDS011;16879;50.852;15.602;2023-11-21T08:13:27;24.38;;;14.82;;
30048;SDS011;16879;50.852;15.602;2023-11-21T08:15:54;39.03;;;24.00;;
30048;SDS011;16879;50.852;15.602;2023-11-21T08:18:21;85.82;;;49.70;;
30048;SDS011;16879;50.852;15.602;2023-11-21T08:20:48;68.72;;;41.85;;
30048;SDS011;16879;50.852;15.602;2023-11-21T08:23:14;82.63;;;49.03;;
30048;SDS011;16879;50.852;15.602;2023-11-21T08:25:42;85.05;;;52.10;;
30048;SDS011;16879;50.852;15.602;2023-11-21T08:28:09;76.38;;;50.85;;
30048;SDS011;16879;50.852;15.602;2023-11-21T08:30:35;70.53;;;44.55;;
30048;SDS011;16879;50.852;15.602;2023-11-21T08:33:01;77.70;;;47.67;;
30048;SDS011;16879;50.852;15.602;2023-11-21T08:35:29;70.20;;;44.05;;
30048;SDS011;16879;50.852;15.602;2023-11-21T08:37:55;61.00;;;41.50;;
30048;SDS011;16879;50.852;15.602;2023-11-21T08:40:21;64.40;;;45.70;;
30048;SDS011;16879;50.852;15.602;2023-11-21T08:42:47;56.17;;;38.25;;
30048;SDS011;16879;50.852;15.602;2023-11-21T08:45:14;72.47;;;44.92;;
30048;SDS011;16879;50.852;15.602;2023-11-21T08:47:40;71.55;;;48.58;;
30048;SDS011;16879;50.852;15.602;2023-11-21T08:50:06;62.92;;;43.20;;
30048;SDS011;16879;50.852;15.602;2023-11-21T08:52:35;46.88;;;32.40;;
30048;SDS011;16879;50.852;15.602;2023-11-21T08:55:02;41.53;;;27.10;;
30048;SDS011;16879;50.852;15.602;2023-11-21T08:57:35;34.50;;;22.33;;
30048;SDS011;16879;50.852;15.602;2023-11-21T09:00:05;30.80;;;17.75;;
30048;SDS011;16879;50.852;15.602;2023-11-21T09:02:36;23.42;;;16.73;;
30048;SDS011;16879;50.852;15.602;2023-11-21T09:05:06;29.25;;;18.15;;
30048;SDS011;16879;50.852;15.602;2023-11-21T09:07:34;23.23;;;15.02;;
30048;SDS011;16879;50.852;15.602;2023-11-21T09:10:00;24.15;;;15.32;;
30048;SDS011;16879;50.852;15.602;2023-11-21T09:12:27;25.20;;;14.07;;
30048;SDS011;16879;50.852;15.602;2023-11-21T09:14:52;15.27;;;9.43;;
30048;SDS011;16879;50.852;15.602;2023-11-21T09:17:18;11.48;;;6.57;;
30048;SDS011;16879;50.852;15.602;2023-11-21T09:19:44;11.23;;;6.45;;
30048;SDS011;16879;50.852;15.602;2023-11-21T09:22:15;10.90;;;5.78;;
30048;SDS011;16879;50.852;15.602;2023-11-21T09:24:41;7.03;;;4.32;;
30048;SDS011;16879;50.852;15.602;2023-11-21T09:27:08;4.72;;;3.40;;
30048;SDS011;16879;50.852;15.602;2023-11-21T09:29:34;4.80;;;3.00;;
30048;SDS011;16879;50.852;15.602;2023-11-21T09:32:04;4.97;;;2.83;;
30048;SDS011;16879;50.852;15.602;2023-11-21T09:34:33;6.15;;;2.95;;
30048;SDS011;16879;50.852;15.602;2023-11-21T09:37:04;4.28;;;2.17;;
30048;SDS011;16879;50.852;15.602;2023-11-21T09:39:32;5.68;;;2.80;;
30048;SDS011;16879;50.852;15.602;2023-11-21T09:42:44;3.70;;;2.67;;
30048;SDS011;16879;50.852;15.602;2023-11-21T09:47:17;4.25;;;1.90;;
30048;SDS011;16879;50.852;15.602;2023-11-21T09:49:46;4.50;;;2.35;;
30048;SDS011;16879;50.852;15.602;2023-11-21T09:52:22;3.92;;;2.55;;
30048;SDS011;16879;50.852;15.602;2023-11-21T09:54:50;4.22;;;3.35;;
30048;SDS011;16879;50.852;15.602;2023-11-21T09:57:21;5.78;;;2.92;;
30048;SDS011;16879;50.852;15.602;2023-11-21T09:59:47;4.65;;;2.72;;
30048;SDS011;16879;50.852;15.602;2023-11-21T10:02:16;6.25;;;2.90;;
30048;SDS011;16879;50.852;15.602;2023-11-21T10:04:44;5.07;;;2.90;;
30048;SDS011;16879;50.852;15.602;2023-11-21T10:07:10;5.18;;;2.05;;
30048;SDS011;16879;50.852;15.602;2023-11-21T10:09:40;4.85;;;1.90;;
30048;SDS011;16879;50.852;15.602;2023-11-21T10:12:07;3.97;;;2.05;;
30048;SDS011;16879;50.852;15.602;2023-11-21T10:14:35;4.85;;;2.05;;
30048;SDS011;16879;50.852;15.602;2023-11-21T10:17:03;4.55;;;1.88;;
30048;SDS011;16879;50.852;15.602;2023-11-21T10:19:30;5.30;;;2.67;;
30048;SDS011;16879;50.852;15.602;2023-11-21T10:21:57;4.57;;;2.45;;
30048;SDS011;16879;50.852;15.602;2023-11-21T10:24:24;4.18;;;2.08;;
30048;SDS011;16879;50.852;15.602;2023-11-21T10:26:50;5.38;;;2.40;;
30048;SDS011;16879;50.852;15.602;2023-11-21T10:29:18;4.32;;;1.98;;
30048;SDS011;16879;50.852;15.602;2023-11-21T10:31:48;4.60;;;2.05;;
30048;SDS011;16879;50.852;15.602;2023-11-21T10:34:16;2.45;;;1.90;;
30048;SDS011;16879;50.852;15.602;2023-11-21T10:36:43;4.43;;;2.13;;
30048;SDS011;16879;50.852;15.602;2023-11-21T10:39:13;5.28;;;2.63;;
30048;SDS011;16879;50.852;15.602;2023-11-21T10:41:43;4.57;;;2.80;;
30048;SDS011;16879;50.852;15.602;2023-11-21T10:44:11;5.70;;;4.65;;
30048;SDS011;16879;50.852;15.602;2023-11-21T10:46:39;7.13;;;3.55;;
30048;SDS011;16879;50.852;15.602;2023-11-21T10:49:08;5.13;;;3.90;;
30048;SDS011;16879;50.852;15.602;2023-11-21T10:51:34;3.70;;;2.28;;
30048;SDS011;16879;50.852;15.602;2023-11-21T10:54:00;6.80;;;3.85;;
30048;SDS011;16879;50.852;15.602;2023-11-21T10:56:26;7.93;;;3.67;;
30048;SDS011;16879;50.852;15.602;2023-11-21T10:58:55;7.25;;;3.00;;
30048;SDS011;16879;50.852;15.602;2023-11-21T11:01:21;5.43;;;3.53;;
30048;SDS011;16879;50.852;15.602;2023-11-21T11:03:54;4.22;;;2.50;;
30048;SDS011;16879;50.852;15.602;2023-11-21T11:06:21;4.13;;;2.85;;
30048;SDS011;16879;50.852;15.602;2023-11-21T11:08:47;5.45;;;3.67;;
30048;SDS011;16879;50.852;15.602;2023-11-21T11:11:13;4.53;;;2.50;;
30048;SDS011;16879;50.852;15.602;2023-11-21T11:13:43;4.10;;;2.00;;
30048;SDS011;16879;50.852;15.602;2023-11-21T11:16:11;3.28;;;1.67;;
30048;SDS011;16879;50.852;15.602;2023-11-21T11:18:42;6.72;;;2.10;;
30048;SDS011;16879;50.852;15.602;2023-11-21T11:21:19;4.60;;;2.80;;
30048;SDS011;16879;50.852;15.602;2023-11-21T11:23:58;5.93;;;2.53;;
30048;SDS011;16879;50.852;15.602;2023-11-21T11:34:26;3.22;;;1.60;;
30048;SDS011;16879;50.852;15.602;2023-11-21T11:41:56;1.85;;;1.67;;
30048;SDS011;16879;50.852;15.602;2023-11-21T11:47:19;2.28;;;2.05;;
30048;SDS011;16879;50.852;15.602;2023-11-21T11:49:55;1.60;;;1.50;;
30048;SDS011;16879;50.852;15.602;2023-11-21T11:52:35;1.77;;;1.38;;
30048;SDS011;16879;50.852;15.602;2023-11-21T11:55:02;2.78;;;1.20;;
30048;SDS011;16879;50.852;15.602;2023-11-21T11:57:30;1.90;;;1.38;;
30048;SDS011;16879;50.852;15.602;2023-11-21T12:00:13;1.40;;;1.30;;
30048;SDS011;16879;50.852;15.602;2023-11-21T12:02:50;1.45;;;1.17;;
30048;SDS011;16879;50.852;15.602;2023-11-21T12:05:19;2.00;;;1.20;;
30048;SDS011;16879;50.852;15.602;2023-11-21T12:07:48;1.20;;;1.20;;
30048;SDS011;16879;50.852;15.602;2023-11-21T12:10:15;2.15;;;1.33;;
30048;SDS011;16879;50.852;15.602;2023-11-21T12:12:45;2.10;;;1.40;;
30048;SDS011;16879;50.852;15.602;2023-11-21T12:15:12;1.52;;;1.33;;
30048;SDS011;16879;50.852;15.602;2023-11-21T12:17:39;1.30;;;1.20;;
30048;SDS011;16879;50.852;15.602;2023-11-21T12:20:09;1.00;;;1.00;;
30048;SDS011;16879;50.852;15.602;2023-11-21T12:22:45;1.13;;;1.00;;
30048;SDS011;16879;50.852;15.602;2023-11-21T12:25:15;2.35;;;1.08;;
30048;SDS011;16879;50.852;15.602;2023-11-21T12:27:43;1.27;;;1.17;;
30048;SDS011;16879;50.852;15.602;2023-11-21T12:30:10;1.13;;;1.10;;
30048;SDS011;16879;50.852;15.602;2023-11-21T12:32:42;1.10;;;1.10;;
30048;SDS011;16879;50.852;15.602;2023-11-21T12:35:09;2.63;;;1.92;;
30048;SDS011;16879;50.852;15.602;2023-11-21T12:37:37;2.38;;;1.65;;
30048;SDS011;16879;50.852;15.602;2023-11-21T12:40:04;1.55;;;1.40;;
30048;SDS011;16879;50.852;15.602;2023-11-21T12:42:52;1.67;;;1.58;;
30048;SDS011;16879;50.852;15.602;2023-11-21T12:45:23;3.83;;;3.08;;
30048;SDS011;16879;50.852;15.602;2023-11-21T12:48:02;2.80;;;2.13;;
30048;SDS011;16879;50.852;15.602;2023-11-21T12:50:33;1.98;;;1.42;;
30048;SDS011;16879;50.852;15.602;2023-11-21T12:53:01;1.35;;;1.25;;
30048;SDS011;16879;50.852;15.602;2023-11-21T12:55:30;1.20;;;1.20;;
30048;SDS011;16879;50.852;15.602;2023-11-21T12:57:56;2.50;;;1.30;;
30048;SDS011;16879;50.852;15.602;2023-11-21T13:00:32;2.55;;;1.70;;
30048;SDS011;16879;50.852;15.602;2023-11-21T13:03:04;4.68;;;1.60;;
30048;SDS011;16879;50.852;15.602;2023-11-21T13:05:36;1.13;;;1.13;;
30048;SDS011;16879;50.852;15.602;2023-11-21T13:08:04;1.00;;;1.00;;
30048;SDS011;16879;50.852;15.602;2023-11-21T13:10:33;1.13;;;1.13;;
30048;SDS011;16879;50.852;15.602;2023-11-21T13:13:05;1.10;;;1.10;;
30048;SDS011;16879;50.852;15.602;2023-11-21T13:15:34;1.60;;;1.50;;
30048;SDS011;16879;50.852;15.602;2023-11-21T13:18:05;1.13;;;1.00;;
30048;SDS011;16879;50.852;15.602;2023-11-21T13:20:32;1.00;;;1.00;;
30048;SDS011;16879;50.852;15.602;2023-11-21T13:22:58;2.13;;;1.40;;
30048;SDS011;16879;50.852;15.602;2023-11-21T13:25:26;2.67;;;1.60;;
30048;SDS011;16879;50.852;15.602;2023-11-21T13:27:56;1.55;;;1.40;;
30048;SDS011;16879;50.852;15.602;2023-11-21T13:30:22;1.75;;;1.40;;
30048;SDS011;16879;50.852;15.602;2023-11-21T13:32:53;2.72;;;1.52;;
30048;SDS011;16879;50.852;15.602;2023-11-21T13:35:25;2.05;;;1.40;;
30048;SDS011;16879;50.852;15.602;2023-11-21T13:38:21;2.15;;;1.40;;
30048;SDS011;16879;50.852;15.602;2023-11-21T13:40:51;1.35;;;1.23;;
30048;SDS011;16879;50.852;15.602;2023-11-21T13:43:22;1.67;;;1.48;;
30048;SDS011;16879;50.852;15.602;2023-11-21T13:45:52;1.92;;;1.67;;
30048;SDS011;16879;50.852;15.602;2023-11-21T13:51:22;1.50;;;1.40;;
30048;SDS011;16879;50.852;15.602;2023-11-21T13:54:04;3.42;;;1.30;;
30048;SDS011;16879;50.852;15.602;2023-11-21T13:56:35;1.77;;;1.33;;
30048;SDS011;16879;50.852;15.602;2023-11-21T13:59:02;2.15;;;1.20;;
30048;SDS011;16879;50.852;15.602;2023-11-21T14:01:50;1.70;;;1.30;;
30048;SDS011;16879;50.852;15.602;2023-11-21T14:04:33;1.17;;;1.07;;
30048;SDS011;16879;50.852;15.602;2023-11-21T14:07:15;1.08;;;1.05;;
30048;SDS011;16879;50.852;15.602;2023-11-21T14:09:51;1.05;;;0.95;;
30048;SDS011;16879;50.852;15.602;2023-11-21T14:12:17;1.48;;;1.08;;
30048;SDS011;16879;50.852;15.602;2023-11-21T14:14:44;0.98;;;0.95;;
30048;SDS011;16879;50.852;15.602;2023-11-21T14:17:12;3.63;;;1.80;;
30048;SDS011;16879;50.852;15.602;2023-11-21T14:19:38;2.60;;;1.52;;
30048;SDS011;16879;50.852;15.602;2023-11-21T14:22:08;1.80;;;1.08;;
30048;SDS011;16879;50.852;15.602;2023-11-21T14:24:35;2.70;;;1.42;;
30048;SDS011;16879;50.852;15.602;2023-11-21T14:27:01;2.17;;;1.10;;
30048;SDS011;16879;50.852;15.602;2023-11-21T14:29:28;1.42;;;1.10;;
30048;SDS011;16879;50.852;15.602;2023-11-21T14:31:55;1.30;;;1.20;;
30048;SDS011;16879;50.852;15.602;2023-11-21T14:34:22;1.13;;;0.95;;
30048;SDS011;16879;50.852;15.602;2023-11-21T14:36:49;3.05;;;1.30;;
30048;SDS011;16879;50.852;15.602;2023-11-21T14:39:15;1.17;;;1.08;;
30048;SDS011;16879;50.852;15.602;2023-11-21T14:42:02;2.80;;;1.95;;
30048;SDS011;16879;50.852;15.602;2023-11-21T14:44:29;4.10;;;2.47;;
30048;SDS011;16879;50.852;15.602;2023-11-21T14:47:00;3.15;;;1.73;;
30048;SDS011;16879;50.852;15.602;2023-11-21T14:49:31;3.10;;;2.38;;
30048;SDS011;16879;50.852;15.602;2023-11-21T14:52:09;3.38;;;2.15;;